sensor_id;sensor_type;location;lat;lon;timestamp;pressure;altitude;pressure_sealevel;temperature;humidity
58385;BME280;44185;47.844;8.966;2024-02-23T00:00:12;62468.84;;;5.45;100.00
58385;BME280;44185;47.844;8.966;2024-02-23T00:02:37;62454.44;;;5.32;100.00
58385;BME280;44185;47.844;8.966;2024-02-23T00:05:03;62422.84;;;5.02;100.00
58385;BME280;44185;47.844;8.966;2024-02-23T00:07:29;62404.56;;;4.85;100.00
58385;BME280;44185;47.844;8.966;2024-02-23T00:09:54;62406.22;;;4.86;100.00
58385;BME280;44185;47.844;8.966;2024-02-23T00:12:20;62399.59;;;4.80;100.00
58385;BME280;44185;47.844;8.966;2024-02-23T00:14:46;62399.03;;;4.80;100.00
58385;BME280;44185;47.844;8.966;2024-02-23T00:17:12;62398.47;;;4.79;100.00
58385;BME280;44185;47.844;8.966;2024-02-23T00:19:38;62397.69;;;4.83;100.00
58385;BME280;44185;47.844;8.966;2024-02-23T00:22:03;62404.00;;;4.84;100.00
58385;BME280;44185;47.844;8.966;2024-02-23T00:24:29;62405.66;;;4.86;100.00
58385;BME280;44185;47.844;8.966;2024-02-23T00:26:54;62392.94;;;4.74;100.00
58385;BME280;44185;47.844;8.966;2024-02-23T00:29:20;62394.06;;;4.75;100.00
58385;BME280;44185;47.844;8.966;2024-02-23T00:31:46;62380.22;;;4.62;100.00
58385;BME280;44185;47.844;8.966;2024-02-23T00:34:13;62388.50;;;4.70;100.00
58385;BME280;44185;47.844;8.966;2024-02-23T00:36:39;62384.81;;;4.69;100.00
58385;BME280;44185;47.844;8.966;2024-02-23T00:39:04;62374.66;;;4.56;100.00
58385;BME280;44185;47.844;8.966;2024-02-23T00:41:30;62381.31;;;4.63;100.00
58385;BME280;44185;47.844;8.966;2024-02-23T00:43:55;62382.97;;;4.64;100.00
58385;BME280;44185;47.844;8.966;2024-02-23T00:46:21;62381.84;;;4.63;100.00
58385;BME280;44185;47.844;8.966;2024-02-23T00:48:46;62385.19;;;4.66;100.00
58385;BME280;44185;47.844;8.966;2024-02-23T00:51:13;62386.84;;;4.68;100.00
58385;BME280;44185;47.844;8.966;2024-02-23T00:53:38;62382.97;;;4.64;100.00
58385;BME280;44185;47.844;8.966;2024-02-23T00:56:05;62378.53;;;4.60;100.00
58385;BME280;44185;47.844;8.966;2024-02-23T00:58:30;62385.34;;;4.69;100.00
58385;BME280;44185;47.844;8.966;2024-02-23T01:00:56;62374.81;;;4.59;100.00
58385;BME280;44185;47.844;8.966;2024-02-23T01:03:21;62377.59;;;4.62;100.00
58385;BME280;44185;47.844;8.966;2024-02-23T01:05:47;62379.66;;;4.61;100.00
58385;BME280;44185;47.844;8.966;2024-02-23T01:08:14;62377.41;;;4.59;100.00
58385;BME280;44185;47.844;8.966;2024-02-23T01:10:40;62374.66;;;4.56;100.00
58385;BME280;44185;47.844;8.966;2024-02-23T01:13:05;62372.44;;;4.54;100.00
58385;BME280;44185;47.844;8.966;2024-02-23T01:15:30;62363.91;;;4.51;100.00
58385;BME280;44185;47.844;8.966;2024-02-23T01:17:56;62368.56;;;4.51;100.00
58385;BME280;44185;47.844;8.966;2024-02-23T01:20:21;62370.97;;;4.55;100.00
58385;BME280;44185;47.844;8.966;2024-02-23T01:22:47;62365.25;;;4.48;100.00
58385;BME280;44185;47.844;8.966;2024-02-23T01:25:14;62364.13;;;4.47;100.00
58385;BME280;44185;47.844;8.966;2024-02-23T01:27:39;62367.47;;;4.50;100.00
58385;BME280;44185;47.844;8.966;2024-02-23T01:30:06;62365.81;;;4.48;100.00
58385;BME280;44185;47.844;8.966;2024-02-23T01:32:32;62372.44;;;4.54;100.00
58385;BME280;44185;47.844;8.966;2024-02-23T01:34:57;62370.78;;;4.53;100.00
58385;BME280;44185;47.844;8.966;2024-02-23T01:37:22;62365.81;;;4.48;100.00
58385;BME280;44185;47.844;8.966;2024-02-23T01:39:48;62346.97;;;4.30;100.00
58385;BME280;44185;47.844;8.966;2024-02-23T01:42:15;62348.09;;;4.31;100.00
58385;BME280;44185;47.844;8.966;2024-02-23T01:44:40;62346.97;;;4.30;100.00
58385;BME280;44185;47.844;8.966;2024-02-23T01:47:06;62335.91;;;4.20;100.00
58385;BME280;44185;47.844;8.966;2024-02-23T01:49:32;62329.25;;;4.14;100.00
58385;BME280;44185;47.844;8.966;2024-02-23T01:51:58;62331.66;;;4.18;100.00
58385;BME280;44185;47.844;8.966;2024-02-23T01:54:24;62330.91;;;4.15;100.00
58385;BME280;44185;47.844;8.966;2024-02-23T01:56:50;62322.06;;;4.07;100.00
58385;BME280;44185;47.844;8.966;2024-02-23T01:59:18;62327.03;;;4.11;100.00
58385;BME280;44185;47.844;8.966;2024-02-23T02:01:44;62306.56;;;3.92;100.00
58385;BME280;44185;47.844;8.966;2024-02-23T02:04:09;62297.72;;;3.84;100.00
58385;BME280;44185;47.844;8.966;2024-02-23T02:06:35;62311.53;;;3.97;100.00
58385;BME280;44185;47.844;8.966;2024-02-23T02:09:01;62303.25;;;3.89;100.00
58385;BME280;44185;47.844;8.966;2024-02-23T02:11:27;62293.28;;;3.80;100.00
58385;BME280;44185;47.844;8.966;2024-02-23T02:13:52;62293.28;;;3.80;100.00
58385;BME280;44185;47.844;8.966;2024-02-23T02:16:19;62265.25;;;3.55;100.00
58385;BME280;44185;47.844;8.966;2024-02-23T02:18:44;62263.41;;;3.51;100.00
58385;BME280;44185;47.844;8.966;2024-02-23T02:21:10;62266.72;;;3.54;100.00
58385;BME280;44185;47.844;8.966;2024-02-23T02:23:35;62263.97;;;3.52;100.00
58385;BME280;44185;47.844;8.966;2024-02-23T02:26:01;62260.06;;;3.48;100.00
58385;BME280;44185;47.844;8.966;2024-02-23T02:28:26;62244.03;;;3.33;100.00
58385;BME280;44185;47.844;8.966;2024-02-23T02:30:52;62234.09;;;3.24;100.00
58385;BME280;44185;47.844;8.966;2024-02-23T02:33:19;62237.94;;;3.27;100.00
58385;BME280;44185;47.844;8.966;2024-02-23T02:35:44;62236.31;;;3.26;100.00
58385;BME280;44185;47.844;8.966;2024-02-23T02:38:10;62239.06;;;3.28;100.00
58385;BME280;44185;47.844;8.966;2024-02-23T02:40:35;62247.38;;;3.36;100.00
58385;BME280;44185;47.844;8.966;2024-02-23T02:43:01;62250.13;;;3.39;100.00
58385;BME280;44185;47.844;8.966;2024-02-23T02:45:26;62237.41;;;3.27;100.00
58385;BME280;44185;47.844;8.966;2024-02-23T02:47:52;62246.81;;;3.36;100.00
58385;BME280;44185;47.844;8.966;2024-02-23T02:50:19;62229.81;;;3.22;100.00
58385;BME280;44185;47.844;8.966;2024-02-23T02:52:44;62233.53;;;3.23;100.00
58385;BME280;44185;47.844;8.966;2024-02-23T02:55:10;62242.38;;;3.31;100.00
58385;BME280;44185;47.844;8.966;2024-02-23T02:57:35;62223.03;;;3.13;100.00
58385;BME280;44185;47.844;8.966;2024-02-23T03:00:01;62211.41;;;3.02;100.00
58385;BME280;44185;47.844;8.966;2024-02-23T03:02:26;62206.97;;;2.98;100.00
58385;BME280;44185;47.844;8.966;2024-02-23T03:04:52;62216.38;;;3.07;100.00
58385;BME280;44185;47.844;8.966;2024-02-23T03:07:18;62212.13;;;3.05;100.00
58385;BME280;44185;47.844;8.966;2024-02-23T03:09:44;62225.81;;;3.16;100.00
58385;BME280;44185;47.844;8.966;2024-02-23T03:12:10;62219.16;;;3.09;100.00
58385;BME280;44185;47.844;8.966;2024-02-23T03:14:36;62214.72;;;3.05;100.00
58385;BME280;44185;47.844;8.966;2024-02-23T03:17:01;62205.34;;;2.96;100.00
58385;BME280;44185;47.844;8.966;2024-02-23T03:19:27;62200.91;;;2.92;100.00
58385;BME280;44185;47.844;8.966;2024-02-23T03:21:52;62196.47;;;2.88;100.00
58385;BME280;44185;47.844;8.966;2024-02-23T03:24:19;62197.03;;;2.88;100.00
58385;BME280;44185;47.844;8.966;2024-02-23T03:26:44;62205.34;;;2.96;100.00
58385;BME280;44185;47.844;8.966;2024-02-23T03:29:10;62208.09;;;2.99;100.00
58385;BME280;44185;47.844;8.966;2024-02-23T03:31:36;62216.94;;;3.07;100.00
58385;BME280;44185;47.844;8.966;2024-02-23T03:34:02;62211.41;;;3.02;100.00
58385;BME280;44185;47.844;8.966;2024-02-23T03:36:27;62197.03;;;2.88;100.00
58385;BME280;44185;47.844;8.966;2024-02-23T03:38:53;62189.31;;;2.81;100.00
58385;BME280;44185;47.844;8.966;2024-02-23T03:41:19;62180.81;;;2.78;100.00
58385;BME280;44185;47.844;8.966;2024-02-23T03:43:45;62190.94;;;2.83;100.00
58385;BME280;44185;47.844;8.966;2024-02-23T03:46:10;62196.47;;;2.88;100.00
58385;BME280;44185;47.844;8.966;2024-02-23T03:48:36;62189.47;;;2.84;100.00
58385;BME280;44185;47.844;8.966;2024-02-23T03:51:03;62209.75;;;3.00;100.00
58385;BME280;44185;47.844;8.966;2024-02-23T03:53:28;62219.16;;;3.09;100.00
58385;BME280;44185;47.844;8.966;2024-02-23T03:55:54;62225.81;;;3.16;100.00
58385;BME280;44185;47.844;8.966;2024-02-23T03:58:20;62219.16;;;3.09;100.00
58385;BME280;44185;47.844;8.966;2024-02-23T04:00:46;62202.56;;;2.94;100.00
58385;BME280;44185;47.844;8.966;2024-02-23T04:03:11;62189.31;;;2.81;100.00
58385;BME280;44185;47.844;8.966;2024-02-23T04:05:37;62191.13;;;2.85;100.00
58385;BME280;44185;47.844;8.966;2024-02-23T04:08:03;62219.16;;;3.09;100.00
58385;BME280;44185;47.844;8.966;2024-02-23T04:10:28;62222.47;;;3.13;100.00
58385;BME280;44185;47.844;8.966;2024-02-23T04:12:54;62188.75;;;2.81;100.00
58385;BME280;44185;47.844;8.966;2024-02-23T04:15:20;62198.69;;;2.90;100.00
58385;BME280;44185;47.844;8.966;2024-02-23T04:17:46;62189.31;;;2.81;100.00
58385;BME280;44185;47.844;8.966;2024-02-23T04:20:11;62193.72;;;2.85;100.00
58385;BME280;44185;47.844;8.966;2024-02-23T04:22:37;62168.28;;;2.61;100.00
58385;BME280;44185;47.844;8.966;2024-02-23T04:25:03;62192.06;;;2.84;100.00
58385;BME280;44185;47.844;8.966;2024-02-23T04:27:28;62186.53;;;2.78;100.00
58385;BME280;44185;47.844;8.966;2024-02-23T04:29:54;62189.31;;;2.81;100.00
58385;BME280;44185;47.844;8.966;2024-02-23T04:32:21;62179.91;;;2.72;100.00
58385;BME280;44185;47.844;8.966;2024-02-23T04:34:46;62187.63;;;2.80;100.00
58385;BME280;44185;47.844;8.966;2024-02-23T04:37:11;62199.25;;;2.91;100.00
58385;BME280;44185;47.844;8.966;2024-02-23T04:39:37;62170.50;;;2.63;100.00
58385;BME280;44185;47.844;8.966;2024-02-23T04:42:03;62185.97;;;2.78;100.00
58385;BME280;44185;47.844;8.966;2024-02-23T04:44:28;62177.69;;;2.70;100.00
58385;BME280;44185;47.844;8.966;2024-02-23T04:46:53;62187.06;;;2.79;100.00
58385;BME280;44185;47.844;8.966;2024-02-23T04:49:20;62192.06;;;2.84;100.00
58385;BME280;44185;47.844;8.966;2024-02-23T04:51:46;62202.56;;;2.94;100.00
58385;BME280;44185;47.844;8.966;2024-02-23T04:54:11;62193.16;;;2.85;100.00
58385;BME280;44185;47.844;8.966;2024-02-23T04:56:37;62202.00;;;2.93;100.00
58385;BME280;44185;47.844;8.966;2024-02-23T04:59:02;62201.44;;;2.93;100.00
58385;BME280;44185;47.844;8.966;2024-02-23T05:01:28;62213.06;;;3.04;100.00
58385;BME280;44185;47.844;8.966;2024-02-23T05:03:53;62200.91;;;2.92;100.00
58385;BME280;44185;47.844;8.966;2024-02-23T05:06:20;62194.28;;;2.86;100.00
58385;BME280;44185;47.844;8.966;2024-02-23T05:08:45;62190.41;;;2.82;100.00
58385;BME280;44185;47.844;8.966;2024-02-23T05:11:11;62198.69;;;2.90;100.00
58385;BME280;44185;47.844;8.966;2024-02-23T05:13:39;62205.88;;;2.97;100.00
58385;BME280;44185;47.844;8.966;2024-02-23T05:16:05;62213.63;;;3.04;100.00
58385;BME280;44185;47.844;8.966;2024-02-23T05:18:30;62201.44;;;2.93;100.00
58385;BME280;44185;47.844;8.966;2024-02-23T05:20:56;62205.88;;;2.97;100.00
58385;BME280;44185;47.844;8.966;2024-02-23T05:23:22;62205.34;;;2.96;100.00
58385;BME280;44185;47.844;8.966;2024-02-23T05:25:48;62202.56;;;2.94;100.00
58385;BME280;44185;47.844;8.966;2024-02-23T05:28:13;62203.66;;;2.95;100.00
58385;BME280;44185;47.844;8.966;2024-02-23T05:30:39;62199.81;;;2.91;100.00
58385;BME280;44185;47.844;8.966;2024-02-23T05:33:04;62200.91;;;2.92;100.00
58385;BME280;44185;47.844;8.966;2024-02-23T05:35:30;62199.81;;;2.91;100.00
58385;BME280;44185;47.844;8.966;2024-02-23T05:37:55;62194.44;;;2.88;100.00
58385;BME280;44185;47.844;8.966;2024-02-23T05:40:22;62201.44;;;2.93;100.00
58385;BME280;44185;47.844;8.966;2024-02-23T05:42:47;62210.31;;;3.01;100.00
58385;BME280;44185;47.844;8.966;2024-02-23T05:45:13;62203.66;;;2.95;100.00
58385;BME280;44185;47.844;8.966;2024-02-23T05:47:38;62190.94;;;2.83;100.00
58385;BME280;44185;47.844;8.966;2024-02-23T05:50:05;62190.41;;;2.82;100.00
58385;BME280;44185;47.844;8.966;2024-02-23T05:52:31;62203.13;;;2.94;100.00
58385;BME280;44185;47.844;8.966;2024-02-23T05:54:56;62209.75;;;3.00;100.00
58385;BME280;44185;47.844;8.966;2024-02-23T05:57:23;62201.44;;;2.93;100.00
58385;BME280;44185;47.844;8.966;2024-02-23T05:59:48;62202.56;;;2.94;100.00
58385;BME280;44185;47.844;8.966;2024-02-23T06:02:14;62194.84;;;2.86;100.00
58385;BME280;44185;47.844;8.966;2024-02-23T06:04:40;62204.22;;;2.95;100.00
58385;BME280;44185;47.844;8.966;2024-02-23T06:07:06;62197.59;;;2.89;100.00
58385;BME280;44185;47.844;8.966;2024-02-23T06:09:31;62199.81;;;2.91;100.00
58385;BME280;44185;47.844;8.966;2024-02-23T06:11:56;62212.50;;;3.03;100.00
58385;BME280;44185;47.844;8.966;2024-02-23T06:14:23;62213.06;;;3.04;100.00
58385;BME280;44185;47.844;8.966;2024-02-23T06:16:49;62203.66;;;2.95;100.00
58385;BME280;44185;47.844;8.966;2024-02-23T06:19:14;62214.19;;;3.05;100.00
58385;BME280;44185;47.844;8.966;2024-02-23T06:21:40;62202.00;;;2.93;100.00
58385;BME280;44185;47.844;8.966;2024-02-23T06:24:05;62208.66;;;2.99;100.00
58385;BME280;44185;47.844;8.966;2024-02-23T06:26:31;62208.09;;;2.99;100.00
58385;BME280;44185;47.844;8.966;2024-02-23T06:28:56;62202.56;;;2.94;100.00
58385;BME280;44185;47.844;8.966;2024-02-23T06:31:23;62201.44;;;2.93;100.00
58385;BME280;44185;47.844;8.966;2024-02-23T06:33:48;62199.25;;;2.91;100.00
58385;BME280;44185;47.844;8.966;2024-02-23T06:36:14;62195.94;;;2.87;100.00
58385;BME280;44185;47.844;8.966;2024-02-23T06:38:40;62198.69;;;2.90;100.00
58385;BME280;44185;47.844;8.966;2024-02-23T06:41:05;62191.69;;;2.86;100.00
58385;BME280;44185;47.844;8.966;2024-02-23T06:43:30;62179.34;;;2.72;100.00
58385;BME280;44185;47.844;8.966;2024-02-23T06:45:56;62197.03;;;2.88;100.00
58385;BME280;44185;47.844;8.966;2024-02-23T06:48:23;62187.63;;;2.80;100.00
58385;BME280;44185;47.844;8.966;2024-02-23T06:50:48;62192.06;;;2.84;100.00
58385;BME280;44185;47.844;8.966;2024-02-23T06:53:14;62199.25;;;2.91;100.00
58385;BME280;44185;47.844;8.966;2024-02-23T06:55:39;62193.72;;;2.85;100.00
58385;BME280;44185;47.844;8.966;2024-02-23T06:58:05;62192.06;;;2.84;100.00
58385;BME280;44185;47.844;8.966;2024-02-23T07:00:30;62188.38;;;2.83;100.00
58385;BME280;44185;47.844;8.966;2024-02-23T07:02:56;62192.59;;;2.84;100.00
58385;BME280;44185;47.844;8.966;2024-02-23T07:05:23;62172.16;;;2.65;100.00
58385;BME280;44185;47.844;8.966;2024-02-23T07:07:48;62166.63;;;2.60;100.00
58385;BME280;44185;47.844;8.966;2024-02-23T07:10:14;62176.03;;;2.69;100.00
58385;BME280;44185;47.844;8.966;2024-02-23T07:12:39;62163.31;;;2.57;100.00
58385;BME280;44185;47.844;8.966;2024-02-23T07:15:06;62180.47;;;2.73;100.00
58385;BME280;44185;47.844;8.966;2024-02-23T07:17:31;62174.94;;;2.67;100.00
58385;BME280;44185;47.844;8.966;2024-02-23T07:19:57;62176.03;;;2.69;100.00
58385;BME280;44185;47.844;8.966;2024-02-23T07:22:23;62167.72;;;2.61;100.00
58385;BME280;44185;47.844;8.966;2024-02-23T07:24:49;62173.81;;;2.66;100.00
58385;BME280;44185;47.844;8.966;2024-02-23T07:27:14;62179.91;;;2.72;100.00
58385;BME280;44185;47.844;8.966;2024-02-23T07:29:40;62186.53;;;2.78;100.00
58385;BME280;44185;47.844;8.966;2024-02-23T07:32:06;62172.34;;;2.67;98.99
58385;BME280;44185;47.844;8.966;2024-02-23T07:34:31;62183.78;;;2.76;95.84
58385;BME280;44185;47.844;8.966;2024-02-23T07:36:57;62187.63;;;2.80;98.71
58385;BME280;44185;47.844;8.966;2024-02-23T07:39:23;62193.72;;;2.85;99.13
58385;BME280;44185;47.844;8.966;2024-02-23T07:41:49;62185.44;;;2.77;98.48
58385;BME280;44185;47.844;8.966;2024-02-23T07:44:14;62179.91;;;2.72;98.64
58385;BME280;44185;47.844;8.966;2024-02-23T07:46:40;62170.50;;;2.63;97.42
58385;BME280;44185;47.844;8.966;2024-02-23T07:49:05;62181.00;;;2.73;97.01
58385;BME280;44185;47.844;8.966;2024-02-23T07:51:31;62199.81;;;2.91;100.00
58385;BME280;44185;47.844;8.966;2024-02-23T07:53:56;62189.84;;;2.82;98.13
58385;BME280;44185;47.844;8.966;2024-02-23T07:56:23;62192.06;;;2.84;97.08
58385;BME280;44185;47.844;8.966;2024-02-23T07:58:48;62201.44;;;2.93;98.70
58385;BME280;44185;47.844;8.966;2024-02-23T08:01:14;62195.94;;;2.87;95.91
58385;BME280;44185;47.844;8.966;2024-02-23T08:03:39;62207.72;;;3.01;98.14
58385;BME280;44185;47.844;8.966;2024-02-23T08:06:05;62212.50;;;3.03;97.79
58385;BME280;44185;47.844;8.966;2024-02-23T08:08:31;62212.13;;;3.05;97.23
58385;BME280;44185;47.844;8.966;2024-02-23T08:10:56;62228.00;;;3.18;99.05
58385;BME280;44185;47.844;8.966;2024-02-23T08:13:23;62202.00;;;2.93;96.08
58385;BME280;44185;47.844;8.966;2024-02-23T08:15:48;62197.03;;;2.88;95.59
58385;BME280;44185;47.844;8.966;2024-02-23T08:18:14;62216.38;;;3.07;95.27
58385;BME280;44185;47.844;8.966;2024-02-23T08:20:39;62218.59;;;3.09;97.51
58385;BME280;44185;47.844;8.966;2024-02-23T08:23:05;62226.34;;;3.16;99.24
58385;BME280;44185;47.844;8.966;2024-02-23T08:25:30;62221.38;;;3.11;99.22
58385;BME280;44185;47.844;8.966;2024-02-23T08:27:56;62218.78;;;3.11;98.84
58385;BME280;44185;47.844;8.966;2024-02-23T08:30:23;62226.91;;;3.17;99.44
58385;BME280;44185;47.844;8.966;2024-02-23T08:32:48;62223.03;;;3.13;100.00
58385;BME280;44185;47.844;8.966;2024-02-23T08:35:14;62237.94;;;3.27;100.00
58385;BME280;44185;47.844;8.966;2024-02-23T08:37:39;62226.91;;;3.17;99.92
58385;BME280;44185;47.844;8.966;2024-02-23T08:40:06;62238.50;;;3.28;100.00
58385;BME280;44185;47.844;8.966;2024-02-23T08:42:32;62242.94;;;3.32;99.48
58385;BME280;44185;47.844;8.966;2024-02-23T08:44:58;62246.81;;;3.36;99.76
58385;BME280;44185;47.844;8.966;2024-02-23T08:47:25;62239.63;;;3.29;99.06
58385;BME280;44185;47.844;8.966;2024-02-23T08:49:50;62236.31;;;3.26;100.00
58385;BME280;44185;47.844;8.966;2024-02-23T08:52:15;62229.28;;;3.21;99.88
58385;BME280;44185;47.844;8.966;2024-02-23T08:54:41;62220.81;;;3.11;98.62
58385;BME280;44185;47.844;8.966;2024-02-23T08:57:06;62226.91;;;3.17;98.53
58385;BME280;44185;47.844;8.966;2024-02-23T08:59:32;62234.09;;;3.24;97.63
58385;BME280;44185;47.844;8.966;2024-02-23T09:01:57;62245.31;;;3.37;98.21
58385;BME280;44185;47.844;8.966;2024-02-23T09:04:24;62248.47;;;3.37;98.00
58385;BME280;44185;47.844;8.966;2024-02-23T09:06:50;62234.09;;;3.24;97.09
58385;BME280;44185;47.844;8.966;2024-02-23T09:09:15;62249.00;;;3.38;96.17
58385;BME280;44185;47.844;8.966;2024-02-23T09:11:41;62237.94;;;3.27;95.05
58385;BME280;44185;47.844;8.966;2024-02-23T09:14:06;62256.78;;;3.45;96.89
58385;BME280;44185;47.844;8.966;2024-02-23T09:16:32;62258.97;;;3.47;97.07
58385;BME280;44185;47.844;8.966;2024-02-23T09:18:57;62273.38;;;3.61;97.35
58385;BME280;44185;47.844;8.966;2024-02-23T09:21:24;62275.56;;;3.63;95.14
58385;BME280;44185;47.844;8.966;2024-02-23T09:23:50;62281.66;;;3.69;95.67
58385;BME280;44185;47.844;8.966;2024-02-23T09:26:15;62247.91;;;3.37;95.36
58385;BME280;44185;47.844;8.966;2024-02-23T09:28:41;62263.41;;;3.51;95.38
58385;BME280;44185;47.844;8.966;2024-02-23T09:31:06;62281.09;;;3.68;96.12
58385;BME280;44185;47.844;8.966;2024-02-23T09:33:32;62296.59;;;3.83;97.56
58385;BME280;44185;47.844;8.966;2024-02-23T09:35:57;62283.88;;;3.71;94.19
58385;BME280;44185;47.844;8.966;2024-02-23T09:38:24;62271.69;;;3.59;95.23
58385;BME280;44185;47.844;8.966;2024-02-23T09:40:50;62276.66;;;3.64;95.23
58385;BME280;44185;47.844;8.966;2024-02-23T09:43:16;62299.38;;;3.85;97.69
58385;BME280;44185;47.844;8.966;2024-02-23T09:45:42;62295.50;;;3.82;95.30
58385;BME280;44185;47.844;8.966;2024-02-23T09:48:09;62300.47;;;3.86;95.11
58385;BME280;44185;47.844;8.966;2024-02-23T09:50:37;62294.56;;;3.83;93.31
58385;BME280;44185;47.844;8.966;2024-02-23T09:53:04;62302.13;;;3.88;94.10
58385;BME280;44185;47.844;8.966;2024-02-23T09:55:32;62305.44;;;3.91;94.72
58385;BME280;44185;47.844;8.966;2024-02-23T09:57:58;62325.38;;;4.10;95.54
58385;BME280;44185;47.844;8.966;2024-02-23T10:00:24;62313.19;;;3.98;94.08
58385;BME280;44185;47.844;8.966;2024-02-23T10:02:49;62316.53;;;4.02;95.57
58385;BME280;44185;47.844;8.966;2024-02-23T10:05:16;62306.56;;;3.92;94.58
58385;BME280;44185;47.844;8.966;2024-02-23T10:07:42;62307.66;;;3.93;94.73
58385;BME280;44185;47.844;8.966;2024-02-23T10:10:08;62293.28;;;3.80;95.27
58385;BME280;44185;47.844;8.966;2024-02-23T10:12:35;62318.72;;;4.04;97.13
58385;BME280;44185;47.844;8.966;2024-02-23T10:15:00;62298.81;;;3.85;94.91
58385;BME280;44185;47.844;8.966;2024-02-23T10:17:26;62312.09;;;3.97;96.33
58385;BME280;44185;47.844;8.966;2024-02-23T10:19:51;62313.75;;;3.99;94.84
58385;BME280;44185;47.844;8.966;2024-02-23T10:22:17;62297.88;;;3.86;95.70
58385;BME280;44185;47.844;8.966;2024-02-23T10:24:42;62307.66;;;3.93;97.95
58385;BME280;44185;47.844;8.966;2024-02-23T10:27:08;62308.38;;;3.96;97.58
58385;BME280;44185;47.844;8.966;2024-02-23T10:29:35;62311.00;;;3.96;97.90
58385;BME280;44185;47.844;8.966;2024-02-23T10:32:01;62302.13;;;3.88;93.46
58385;BME280;44185;47.844;8.966;2024-02-23T10:34:27;62311.16;;;3.99;94.36
58385;BME280;44185;47.844;8.966;2024-02-23T10:36:54;62333.13;;;4.17;95.49
58385;BME280;44185;47.844;8.966;2024-02-23T10:39:23;62345.47;;;4.31;94.73
58385;BME280;44185;47.844;8.966;2024-02-23T10:41:56;62366.34;;;4.49;93.77
58385;BME280;44185;47.844;8.966;2024-02-23T10:44:21;62377.97;;;4.60;93.75
58385;BME280;44185;47.844;8.966;2024-02-23T10:46:48;62373.56;;;4.55;90.22
58385;BME280;44185;47.844;8.966;2024-02-23T10:49:16;62363.22;;;4.48;88.94
58385;BME280;44185;47.844;8.966;2024-02-23T10:51:43;62346.78;;;4.35;89.37
58385;BME280;44185;47.844;8.966;2024-02-23T10:54:09;62374.13;;;4.56;89.59
58385;BME280;44185;47.844;8.966;2024-02-23T10:56:36;62364.13;;;4.47;86.61
58385;BME280;44185;47.844;8.966;2024-02-23T10:59:01;62372.59;;;4.57;87.33
58385;BME280;44185;47.844;8.966;2024-02-23T11:01:30;62387.41;;;4.69;86.91
58385;BME280;44185;47.844;8.966;2024-02-23T11:03:59;62362.09;;;4.47;86.12
58385;BME280;44185;47.844;8.966;2024-02-23T11:06:27;62364.69;;;4.47;85.89
58385;BME280;44185;47.844;8.966;2024-02-23T11:08:53;62364.84;;;4.50;87.45
58385;BME280;44185;47.844;8.966;2024-02-23T11:11:18;62358.03;;;4.41;86.85
58385;BME280;44185;47.844;8.966;2024-02-23T11:13:45;62363.03;;;4.45;87.23
58385;BME280;44185;47.844;8.966;2024-02-23T11:16:10;62358.75;;;4.44;85.62
58385;BME280;44185;47.844;8.966;2024-02-23T11:18:38;62362.44;;;4.52;84.25
58385;BME280;44185;47.844;8.966;2024-02-23T11:21:09;62361.16;;;4.49;85.79
58385;BME280;44185;47.844;8.966;2024-02-23T11:23:40;62356.38;;;4.39;86.81
58385;BME280;44185;47.844;8.966;2024-02-23T11:26:06;62368.00;;;4.50;86.01
58385;BME280;44185;47.844;8.966;2024-02-23T11:28:32;62372.44;;;4.54;86.13
58385;BME280;44185;47.844;8.966;2024-02-23T11:30:57;62367.47;;;4.50;85.23
58385;BME280;44185;47.844;8.966;2024-02-23T11:33:26;62364.13;;;4.47;84.81
58385;BME280;44185;47.844;8.966;2024-02-23T11:35:51;62378.69;;;4.63;83.83
58385;BME280;44185;47.844;8.966;2024-02-23T11:38:18;62417.84;;;4.97;87.64
58385;BME280;44185;47.844;8.966;2024-02-23T11:40:46;62405.66;;;4.86;82.68
58385;BME280;44185;47.844;8.966;2024-02-23T11:43:12;62405.31;;;4.88;82.95
58385;BME280;44185;47.844;8.966;2024-02-23T11:45:37;62392.16;;;4.78;80.42
58385;BME280;44185;47.844;8.966;2024-02-23T11:48:05;62413.97;;;4.94;81.71
58385;BME280;44185;47.844;8.966;2024-02-23T11:50:30;62440.59;;;5.19;80.81
58385;BME280;44185;47.844;8.966;2024-02-23T11:52:57;62455.72;;;5.36;80.70
58385;BME280;44185;47.844;8.966;2024-02-23T11:55:24;62420.06;;;4.99;78.34
58385;BME280;44185;47.844;8.966;2024-02-23T11:57:49;62441.88;;;5.22;80.72
58385;BME280;44185;47.844;8.966;2024-02-23T12:00:15;62424.69;;;5.06;80.72
58385;BME280;44185;47.844;8.966;2024-02-23T12:02:42;62413.97;;;4.94;80.23
58385;BME280;44185;47.844;8.966;2024-02-23T12:05:08;62418.03;;;5.00;83.79
58385;BME280;44185;47.844;8.966;2024-02-23T12:07:33;62402.13;;;4.87;83.42
58385;BME280;44185;47.844;8.966;2024-02-23T12:09:59;62429.28;;;5.13;82.20
58385;BME280;44185;47.844;8.966;2024-02-23T12:12:26;62441.69;;;5.20;81.67
58385;BME280;44185;47.844;8.966;2024-02-23T12:14:52;62465.50;;;5.42;81.37
58385;BME280;44185;47.844;8.966;2024-02-23T12:17:18;62463.09;;;5.45;78.52
58385;BME280;44185;47.844;8.966;2024-02-23T12:19:43;62484.91;;;5.61;78.19
58385;BME280;44185;47.844;8.966;2024-02-23T12:22:10;62470.13;;;5.49;76.24
58385;BME280;44185;47.844;8.966;2024-02-23T12:24:35;62456.66;;;5.34;78.80
58385;BME280;44185;47.844;8.966;2024-02-23T12:27:01;62438.38;;;5.17;78.69
58385;BME280;44185;47.844;8.966;2024-02-23T12:29:28;62421.91;;;5.04;77.71
58385;BME280;44185;47.844;8.966;2024-02-23T12:32:02;62449.06;;;5.29;79.39
58385;BME280;44185;47.844;8.966;2024-02-23T12:34:28;62447.94;;;5.28;77.93
58385;BME280;44185;47.844;8.966;2024-02-23T12:36:55;62450.72;;;5.31;77.97
58385;BME280;44185;47.844;8.966;2024-02-23T12:39:20;62459.75;;;5.42;75.93
58385;BME280;44185;47.844;8.966;2024-02-23T12:41:45;62447.00;;;5.30;77.22
58385;BME280;44185;47.844;8.966;2024-02-23T12:44:11;62463.88;;;5.41;78.71
58385;BME280;44185;47.844;8.966;2024-02-23T12:46:38;62460.53;;;5.38;75.47
58385;BME280;44185;47.844;8.966;2024-02-23T12:49:03;62464.59;;;5.44;78.06
58385;BME280;44185;47.844;8.966;2024-02-23T12:51:29;62441.88;;;5.22;75.81
58385;BME280;44185;47.844;8.966;2024-02-23T12:53:54;62441.13;;;5.19;78.78
58385;BME280;44185;47.844;8.966;2024-02-23T12:56:20;62448.50;;;5.29;80.01